sensor_id;sensor_type;location;lat;lon;timestamp;P1;durP1;ratioP1;P2;durP2;ratioP2
1737;SDS011;16278;48.740;8.736;2022-07-06T00:01:30;0.40;;;0.30;;
1737;SDS011;16278;48.740;8.736;2022-07-06T00:03:57;0.40;;;0.30;;
1737;SDS011;16278;48.740;8.736;2022-07-06T00:06:23;0.50;;;0.47;;
1737;SDS011;16278;48.740;8.736;2022-07-06T00:08:49;0.40;;;0.40;;
1737;SDS011;16278;48.740;8.736;2022-07-06T00:11:15;0.50;;;0.50;;
1737;SDS011;16278;48.740;8.736;2022-07-06T00:13:41;0.60;;;0.40;;
1737;SDS011;16278;48.740;8.736;2022-07-06T00:16:08;1.13;;;0.40;;
1737;SDS011;16278;48.740;8.736;2022-07-06T00:18:33;0.40;;;0.40;;
1737;SDS011;16278;48.740;8.736;2022-07-06T00:20:59;0.60;;;0.40;;
1737;SDS011;16278;48.740;8.736;2022-07-06T00:23:25;0.40;;;0.40;;
1737;SDS011;16278;48.740;8.736;2022-07-06T00:25:51;0.50;;;0.40;;
1737;SDS011;16278;48.740;8.736;2022-07-06T00:28:17;0.50;;;0.47;;
1737;SDS011;16278;48.740;8.736;2022-07-06T00:30:43;0.50;;;0.30;;
1737;SDS011;16278;48.740;8.736;2022-07-06T00:33:09;0.40;;;0.30;;
1737;SDS011;16278;48.740;8.736;2022-07-06T00:35:35;0.50;;;0.40;;
1737;SDS011;16278;48.740;8.736;2022-07-06T00:38:02;0.70;;;0.40;;
1737;SDS011;16278;48.740;8.736;2022-07-06T00:40:28;0.40;;;0.30;;
1737;SDS011;16278;48.740;8.736;2022-07-06T00:42:55;0.80;;;0.40;;
1737;SDS011;16278;48.740;8.736;2022-07-06T00:45:21;0.83;;;0.43;;
1737;SDS011;16278;48.740;8.736;2022-07-06T00:47:47;0.40;;;0.40;;
1737;SDS011;16278;48.740;8.736;2022-07-06T00:50:14;0.47;;;0.40;;
1737;SDS011;16278;48.740;8.736;2022-07-06T00:52:47;0.40;;;0.40;;
1737;SDS011;16278;48.740;8.736;2022-07-06T00:55:14;0.60;;;0.30;;
1737;SDS011;16278;48.740;8.736;2022-07-06T00:57:40;0.60;;;0.40;;
1737;SDS011;16278;48.740;8.736;2022-07-06T01:00:07;0.53;;;0.50;;
1737;SDS011;16278;48.740;8.736;2022-07-06T01:02:34;0.40;;;0.30;;
1737;SDS011;16278;48.740;8.736;2022-07-06T01:05:00;0.50;;;0.50;;
1737;SDS011;16278;48.740;8.736;2022-07-06T01:07:26;0.50;;;0.40;;
1737;SDS011;16278;48.740;8.736;2022-07-06T01:09:53;0.50;;;0.40;;
1737;SDS011;16278;48.740;8.736;2022-07-06T01:12:19;0.50;;;0.40;;
1737;SDS011;16278;48.740;8.736;2022-07-06T01:14:45;0.73;;;0.40;;
1737;SDS011;16278;48.740;8.736;2022-07-06T01:17:11;0.40;;;0.40;;
1737;SDS011;16278;48.740;8.736;2022-07-06T01:19:39;0.50;;;0.50;;
1737;SDS011;16278;48.740;8.736;2022-07-06T01:22:05;0.40;;;0.40;;
1737;SDS011;16278;48.740;8.736;2022-07-06T01:24:31;0.40;;;0.40;;
1737;SDS011;16278;48.740;8.736;2022-07-06T01:26:57;0.50;;;0.40;;
1737;SDS011;16278;48.740;8.736;2022-07-06T01:29:23;0.50;;;0.40;;
1737;SDS011;16278;48.740;8.736;2022-07-06T01:31:49;0.50;;;0.50;;
1737;SDS011;16278;48.740;8.736;2022-07-06T01:34:16;0.50;;;0.50;;
1737;SDS011;16278;48.740;8.736;2022-07-06T01:36:42;0.50;;;0.50;;
1737;SDS011;16278;48.740;8.736;2022-07-06T01:39:09;0.50;;;0.40;;
1737;SDS011;16278;48.740;8.736;2022-07-06T01:41:35;0.50;;;0.40;;
1737;SDS011;16278;48.740;8.736;2022-07-06T01:44:01;0.60;;;0.40;;
1737;SDS011;16278;48.740;8.736;2022-07-06T01:46:27;0.50;;;0.43;;
1737;SDS011;16278;48.740;8.736;2022-07-06T01:48:54;0.53;;;0.43;;
1737;SDS011;16278;48.740;8.736;2022-07-06T01:51:20;0.50;;;0.40;;
1737;SDS011;16278;48.740;8.736;2022-07-06T01:53:46;0.60;;;0.50;;
1737;SDS011;16278;48.740;8.736;2022-07-06T01:56:12;0.80;;;0.47;;
1737;SDS011;16278;48.740;8.736;2022-07-06T01:58:38;0.60;;;0.40;;
1737;SDS011;16278;48.740;8.736;2022-07-06T02:01:10;0.70;;;0.60;;
1737;SDS011;16278;48.740;8.736;2022-07-06T02:03:37;0.67;;;0.50;;
1737;SDS011;16278;48.740;8.736;2022-07-06T02:06:03;0.70;;;0.50;;
1737;SDS011;16278;48.740;8.736;2022-07-06T02:08:30;0.90;;;0.50;;
1737;SDS011;16278;48.740;8.736;2022-07-06T02:10:56;0.60;;;0.50;;
1737;SDS011;16278;48.740;8.736;2022-07-06T02:13:22;0.50;;;0.40;;
1737;SDS011;16278;48.740;8.736;2022-07-06T02:15:48;0.50;;;0.50;;
1737;SDS011;16278;48.740;8.736;2022-07-06T02:18:14;0.90;;;0.60;;
1737;SDS011;16278;48.740;8.736;2022-07-06T02:20:41;0.60;;;0.50;;
1737;SDS011;16278;48.740;8.736;2022-07-06T02:23:07;0.47;;;0.47;;
1737;SDS011;16278;48.740;8.736;2022-07-06T02:25:33;0.80;;;0.50;;
1737;SDS011;16278;48.740;8.736;2022-07-06T02:27:59;0.90;;;0.57;;
1737;SDS011;16278;48.740;8.736;2022-07-06T02:30:25;1.23;;;0.50;;
1737;SDS011;16278;48.740;8.736;2022-07-06T02:32:51;1.00;;;0.57;;
1737;SDS011;16278;48.740;8.736;2022-07-06T02:35:17;0.60;;;0.50;;
1737;SDS011;16278;48.740;8.736;2022-07-06T02:37:43;0.50;;;0.50;;
1737;SDS011;16278;48.740;8.736;2022-07-06T02:40:09;0.53;;;0.50;;
1737;SDS011;16278;48.740;8.736;2022-07-06T02:42:35;0.60;;;0.60;;
1737;SDS011;16278;48.740;8.736;2022-07-06T02:45:01;0.57;;;0.57;;
1737;SDS011;16278;48.740;8.736;2022-07-06T02:47:27;0.50;;;0.50;;
1737;SDS011;16278;48.740;8.736;2022-07-06T02:49:53;0.50;;;0.50;;
1737;SDS011;16278;48.740;8.736;2022-07-06T02:52:20;0.50;;;0.50;;
1737;SDS011;16278;48.740;8.736;2022-07-06T02:54:46;1.10;;;0.50;;
1737;SDS011;16278;48.740;8.736;2022-07-06T02:57:13;0.67;;;0.60;;
1737;SDS011;16278;48.740;8.736;2022-07-06T02:59:39;1.20;;;0.60;;
1737;SDS011;16278;48.740;8.736;2022-07-06T03:02:05;0.73;;;0.60;;
1737;SDS011;16278;48.740;8.736;2022-07-06T03:04:32;0.60;;;0.50;;
1737;SDS011;16278;48.740;8.736;2022-07-06T03:06:58;0.70;;;0.50;;
1737;SDS011;16278;48.740;8.736;2022-07-06T03:09:24;0.80;;;0.60;;
1737;SDS011;16278;48.740;8.736;2022-07-06T03:11:50;0.77;;;0.60;;
1737;SDS011;16278;48.740;8.736;2022-07-06T03:14:16;1.03;;;0.60;;
1737;SDS011;16278;48.740;8.736;2022-07-06T03:16:42;1.17;;;0.60;;
1737;SDS011;16278;48.740;8.736;2022-07-06T03:19:08;0.70;;;0.60;;
1737;SDS011;16278;48.740;8.736;2022-07-06T03:21:34;0.60;;;0.60;;
1737;SDS011;16278;48.740;8.736;2022-07-06T03:24:00;0.77;;;0.50;;
1737;SDS011;16278;48.740;8.736;2022-07-06T03:26:26;0.60;;;0.60;;
1737;SDS011;16278;48.740;8.736;2022-07-06T03:28:52;0.70;;;0.60;;
1737;SDS011;16278;48.740;8.736;2022-07-06T03:31:18;0.67;;;0.60;;
1737;SDS011;16278;48.740;8.736;2022-07-06T03:33:44;0.60;;;0.60;;
1737;SDS011;16278;48.740;8.736;2022-07-06T03:36:10;1.00;;;0.60;;
1737;SDS011;16278;48.740;8.736;2022-07-06T03:38:36;0.80;;;0.60;;
1737;SDS011;16278;48.740;8.736;2022-07-06T03:41:02;0.50;;;0.50;;
1737;SDS011;16278;48.740;8.736;2022-07-06T03:43:29;0.77;;;0.60;;
1737;SDS011;16278;48.740;8.736;2022-07-06T03:45:55;0.73;;;0.60;;
1737;SDS011;16278;48.740;8.736;2022-07-06T03:48:21;1.07;;;0.60;;
1737;SDS011;16278;48.740;8.736;2022-07-06T03:50:47;1.03;;;0.57;;
1737;SDS011;16278;48.740;8.736;2022-07-06T03:53:13;0.70;;;0.57;;
1737;SDS011;16278;48.740;8.736;2022-07-06T03:55:39;0.67;;;0.60;;
1737;SDS011;16278;48.740;8.736;2022-07-06T03:58:05;1.33;;;0.63;;
1737;SDS011;16278;48.740;8.736;2022-07-06T04:00:31;1.33;;;0.60;;
1737;SDS011;16278;48.740;8.736;2022-07-06T04:02:59;0.70;;;0.60;;
1737;SDS011;16278;48.740;8.736;2022-07-06T04:05:25;0.70;;;0.60;;
1737;SDS011;16278;48.740;8.736;2022-07-06T04:07:51;0.43;;;0.40;;
1737;SDS011;16278;48.740;8.736;2022-07-06T04:10:17;0.60;;;0.60;;
1737;SDS011;16278;48.740;8.736;2022-07-06T04:12:43;0.60;;;0.60;;
1737;SDS011;16278;48.740;8.736;2022-07-06T04:15:10;0.63;;;0.60;;
1737;SDS011;16278;48.740;8.736;2022-07-06T04:17:36;1.30;;;0.60;;
1737;SDS011;16278;48.740;8.736;2022-07-06T04:20:17;0.60;;;0.60;;
1737;SDS011;16278;48.740;8.736;2022-07-06T04:22:43;0.70;;;0.60;;
1737;SDS011;16278;48.740;8.736;2022-07-06T04:25:09;0.60;;;0.60;;
1737;SDS011;16278;48.740;8.736;2022-07-06T04:27:35;0.90;;;0.60;;
1737;SDS011;16278;48.740;8.736;2022-07-06T04:30:02;0.93;;;0.83;;
1737;SDS011;16278;48.740;8.736;2022-07-06T04:32:28;0.50;;;0.50;;
1737;SDS011;16278;48.740;8.736;2022-07-06T04:34:54;0.87;;;0.60;;
1737;SDS011;16278;48.740;8.736;2022-07-06T04:37:20;1.10;;;0.60;;
1737;SDS011;16278;48.740;8.736;2022-07-06T04:39:46;0.60;;;0.50;;
1737;SDS011;16278;48.740;8.736;2022-07-06T04:42:12;1.53;;;0.60;;
1737;SDS011;16278;48.740;8.736;2022-07-06T04:44:39;1.00;;;0.60;;
1737;SDS011;16278;48.740;8.736;2022-07-06T04:47:05;0.70;;;0.70;;
1737;SDS011;16278;48.740;8.736;2022-07-06T04:49:31;0.90;;;0.70;;
1737;SDS011;16278;48.740;8.736;2022-07-06T04:51:57;0.60;;;0.60;;
1737;SDS011;16278;48.740;8.736;2022-07-06T04:54:23;0.60;;;0.50;;
1737;SDS011;16278;48.740;8.736;2022-07-06T04:56:49;1.00;;;0.60;;
1737;SDS011;16278;48.740;8.736;2022-07-06T04:59:15;0.80;;;0.70;;
1737;SDS011;16278;48.740;8.736;2022-07-06T05:01:41;1.00;;;0.70;;
1737;SDS011;16278;48.740;8.736;2022-07-06T05:04:07;0.60;;;0.60;;
1737;SDS011;16278;48.740;8.736;2022-07-06T05:06:33;0.60;;;0.60;;
1737;SDS011;16278;48.740;8.736;2022-07-06T05:08:59;0.93;;;0.60;;
1737;SDS011;16278;48.740;8.736;2022-07-06T05:11:28;0.70;;;0.60;;
1737;SDS011;16278;48.740;8.736;2022-07-06T05:13:54;1.10;;;0.77;;
1737;SDS011;16278;48.740;8.736;2022-07-06T05:16:21;1.17;;;0.60;;
1737;SDS011;16278;48.740;8.736;2022-07-06T05:18:47;1.37;;;0.63;;
1737;SDS011;16278;48.740;8.736;2022-07-06T05:21:13;0.70;;;0.70;;
1737;SDS011;16278;48.740;8.736;2022-07-06T05:23:39;0.80;;;0.63;;
1737;SDS011;16278;48.740;8.736;2022-07-06T05:26:05;0.90;;;0.80;;
1737;SDS011;16278;48.740;8.736;2022-07-06T05:28:31;0.80;;;0.70;;
1737;SDS011;16278;48.740;8.736;2022-07-06T05:30:57;0.90;;;0.60;;
1737;SDS011;16278;48.740;8.736;2022-07-06T05:33:23;0.77;;;0.63;;
1737;SDS011;16278;48.740;8.736;2022-07-06T05:35:49;0.90;;;0.70;;
1737;SDS011;16278;48.740;8.736;2022-07-06T05:38:15;0.60;;;0.60;;
1737;SDS011;16278;48.740;8.736;2022-07-06T05:40:41;0.67;;;0.63;;
1737;SDS011;16278;48.740;8.736;2022-07-06T05:43:07;0.83;;;0.70;;
1737;SDS011;16278;48.740;8.736;2022-07-06T05:45:33;1.03;;;0.80;;
1737;SDS011;16278;48.740;8.736;2022-07-06T05:47:59;0.60;;;0.50;;
1737;SDS011;16278;48.740;8.736;2022-07-06T05:50:50;1.20;;;0.60;;
1737;SDS011;16278;48.740;8.736;2022-07-06T05:53:16;0.90;;;0.50;;
1737;SDS011;16278;48.740;8.736;2022-07-06T05:55:42;0.80;;;0.53;;
1737;SDS011;16278;48.740;8.736;2022-07-06T05:58:08;0.50;;;0.50;;
1737;SDS011;16278;48.740;8.736;2022-07-06T06:00:34;1.03;;;0.50;;
1737;SDS011;16278;48.740;8.736;2022-07-06T06:03:00;1.00;;;0.50;;
1737;SDS011;16278;48.740;8.736;2022-07-06T06:05:26;1.37;;;0.50;;
1737;SDS011;16278;48.740;8.736;2022-07-06T06:07:52;0.70;;;0.60;;
1737;SDS011;16278;48.740;8.736;2022-07-06T06:10:19;0.90;;;0.60;;
1737;SDS011;16278;48.740;8.736;2022-07-06T06:12:46;0.60;;;0.50;;
1737;SDS011;16278;48.740;8.736;2022-07-06T06:15:12;0.60;;;0.40;;
1737;SDS011;16278;48.740;8.736;2022-07-06T06:17:39;0.83;;;0.47;;
1737;SDS011;16278;48.740;8.736;2022-07-06T06:20:06;0.70;;;0.50;;
1737;SDS011;16278;48.740;8.736;2022-07-06T06:22:48;0.90;;;0.50;;
1737;SDS011;16278;48.740;8.736;2022-07-06T06:25:15;0.73;;;0.50;;
1737;SDS011;16278;48.740;8.736;2022-07-06T06:27:41;0.80;;;0.50;;
1737;SDS011;16278;48.740;8.736;2022-07-06T06:30:07;1.50;;;0.47;;
1737;SDS011;16278;48.740;8.736;2022-07-06T06:32:33;0.60;;;0.50;;
1737;SDS011;16278;48.740;8.736;2022-07-06T06:34:59;0.67;;;0.40;;
1737;SDS011;16278;48.740;8.736;2022-07-06T06:37:25;0.63;;;0.40;;
1737;SDS011;16278;48.740;8.736;2022-07-06T06:39:51;0.70;;;0.50;;
1737;SDS011;16278;48.740;8.736;2022-07-06T06:42:17;0.50;;;0.43;;
1737;SDS011;16278;48.740;8.736;2022-07-06T06:44:43;0.80;;;0.50;;
1737;SDS011;16278;48.740;8.736;2022-07-06T06:47:10;0.40;;;0.40;;
1737;SDS011;16278;48.740;8.736;2022-07-06T06:49:36;0.50;;;0.40;;
1737;SDS011;16278;48.740;8.736;2022-07-06T06:52:02;1.13;;;0.40;;
1737;SDS011;16278;48.740;8.736;2022-07-06T06:54:28;0.80;;;0.50;;
1737;SDS011;16278;48.740;8.736;2022-07-06T06:56:54;0.47;;;0.40;;
1737;SDS011;16278;48.740;8.736;2022-07-06T06:59:20;0.60;;;0.40;;
1737;SDS011;16278;48.740;8.736;2022-07-06T07:01:46;0.67;;;0.40;;
1737;SDS011;16278;48.740;8.736;2022-07-06T07:04:12;0.87;;;0.40;;
1737;SDS011;16278;48.740;8.736;2022-07-06T07:06:38;0.40;;;0.40;;
1737;SDS011;16278;48.740;8.736;2022-07-06T07:09:04;0.60;;;0.50;;
1737;SDS011;16278;48.740;8.736;2022-07-06T07:11:30;0.60;;;0.40;;
1737;SDS011;16278;48.740;8.736;2022-07-06T07:13:57;0.80;;;0.40;;
1737;SDS011;16278;48.740;8.736;2022-07-06T07:16:24;0.50;;;0.40;;
1737;SDS011;16278;48.740;8.736;2022-07-06T07:18:50;0.47;;;0.40;;
1737;SDS011;16278;48.740;8.736;2022-07-06T07:21:16;0.80;;;0.40;;
1737;SDS011;16278;48.740;8.736;2022-07-06T07:23:42;0.70;;;0.40;;
1737;SDS011;16278;48.740;8.736;2022-07-06T07:26:08;1.20;;;0.40;;
1737;SDS011;16278;48.740;8.736;2022-07-06T07:28:34;1.27;;;0.43;;
1737;SDS011;16278;48.740;8.736;2022-07-06T07:31:01;0.60;;;0.40;;
1737;SDS011;16278;48.740;8.736;2022-07-06T07:33:27;0.50;;;0.40;;
1737;SDS011;16278;48.740;8.736;2022-07-06T07:35:53;0.50;;;0.40;;
1737;SDS011;16278;48.740;8.736;2022-07-06T07:38:19;1.60;;;0.37;;
1737;SDS011;16278;48.740;8.736;2022-07-06T07:40:45;0.90;;;0.40;;
1737;SDS011;16278;48.740;8.736;2022-07-06T07:43:11;0.57;;;0.40;;
1737;SDS011;16278;48.740;8.736;2022-07-06T07:45:37;0.67;;;0.30;;
1737;SDS011;16278;48.740;8.736;2022-07-06T07:48:03;0.50;;;0.40;;
1737;SDS011;16278;48.740;8.736;2022-07-06T07:50:29;0.40;;;0.30;;
1737;SDS011;16278;48.740;8.736;2022-07-06T07:52:55;0.70;;;0.40;;
1737;SDS011;16278;48.740;8.736;2022-07-06T07:55:21;1.00;;;0.50;;
1737;SDS011;16278;48.740;8.736;2022-07-06T07:57:47;0.73;;;0.50;;
1737;SDS011;16278;48.740;8.736;2022-07-06T08:00:13;0.90;;;0.40;;
1737;SDS011;16278;48.740;8.736;2022-07-06T08:02:39;0.53;;;0.40;;
1737;SDS011;16278;48.740;8.736;2022-07-06T08:05:05;1.67;;;0.50;;
1737;SDS011;16278;48.740;8.736;2022-07-06T08:07:32;0.97;;;0.50;;
1737;SDS011;16278;48.740;8.736;2022-07-06T08:09:58;1.20;;;0.40;;
1737;SDS011;16278;48.740;8.736;2022-07-06T08:12:24;0.70;;;0.50;;
1737;SDS011;16278;48.740;8.736;2022-07-06T08:14:51;0.50;;;0.40;;
1737;SDS011;16278;48.740;8.736;2022-07-06T08:17:17;0.53;;;0.40;;
1737;SDS011;16278;48.740;8.736;2022-07-06T08:19:43;0.70;;;0.50;;
1737;SDS011;16278;48.740;8.736;2022-07-06T08:22:09;0.80;;;0.40;;
1737;SDS011;16278;48.740;8.736;2022-07-06T08:24:35;1.67;;;0.50;;
1737;SDS011;16278;48.740;8.736;2022-07-06T08:27:01;0.80;;;0.40;;
1737;SDS011;16278;48.740;8.736;2022-07-06T08:29:28;0.90;;;0.50;;
1737;SDS011;16278;48.740;8.736;2022-07-06T08:31:54;0.83;;;0.50;;
1737;SDS011;16278;48.740;8.736;2022-07-06T08:34:20;0.63;;;0.50;;
1737;SDS011;16278;48.740;8.736;2022-07-06T08:36:46;0.73;;;0.53;;
1737;SDS011;16278;48.740;8.736;2022-07-06T08:39:12;1.30;;;0.50;;
1737;SDS011;16278;48.740;8.736;2022-07-06T08:41:38;1.43;;;0.50;;
1737;SDS011;16278;48.740;8.736;2022-07-06T08:44:07;0.90;;;0.60;;
1737;SDS011;16278;48.740;8.736;2022-07-06T08:46:35;0.70;;;0.40;;
1737;SDS011;16278;48.740;8.736;2022-07-06T08:49:01;0.60;;;0.40;;
1737;SDS011;16278;48.740;8.736;2022-07-06T08:51:27;0.53;;;0.40;;
1737;SDS011;16278;48.740;8.736;2022-07-06T08:53:53;0.50;;;0.40;;
1737;SDS011;16278;48.740;8.736;2022-07-06T08:56:20;0.70;;;0.40;;
1737;SDS011;16278;48.740;8.736;2022-07-06T08:58:46;0.80;;;0.50;;
1737;SDS011;16278;48.740;8.736;2022-07-06T09:01:12;0.73;;;0.50;;
1737;SDS011;16278;48.740;8.736;2022-07-06T09:03:39;1.00;;;0.50;;
1737;SDS011;16278;48.740;8.736;2022-07-06T09:06:06;1.70;;;0.50;;
1737;SDS011;16278;48.740;8.736;2022-07-06T09:08:32;0.80;;;0.43;;
1737;SDS011;16278;48.740;8.736;2022-07-06T09:11:00;0.80;;;0.50;;
1737;SDS011;16278;48.740;8.736;2022-07-06T09:13:26;0.70;;;0.40;;
1737;SDS011;16278;48.740;8.736;2022-07-06T09:15:52;0.40;;;0.40;;
1737;SDS011;16278;48.740;8.736;2022-07-06T09:18:18;1.17;;;0.50;;
1737;SDS011;16278;48.740;8.736;2022-07-06T09:20:46;1.10;;;0.43;;
1737;SDS011;16278;48.740;8.736;2022-07-06T09:23:15;0.50;;;0.40;;
1737;SDS011;16278;48.740;8.736;2022-07-06T09:25:41;1.10;;;0.40;;
1737;SDS011;16278;48.740;8.736;2022-07-06T09:28:08;1.30;;;0.50;;
1737;SDS011;16278;48.740;8.736;2022-07-06T09:30:34;0.77;;;0.50;;
1737;SDS011;16278;48.740;8.736;2022-07-06T09:33:05;1.10;;;0.50;;
1737;SDS011;16278;48.740;8.736;2022-07-06T09:35:37;5.60;;;0.50;;
1737;SDS011;16278;48.740;8.736;2022-07-06T09:38:08;1.13;;;0.40;;
1737;SDS011;16278;48.740;8.736;2022-07-06T09:40:35;0.70;;;0.50;;
1737;SDS011;16278;48.740;8.736;2022-07-06T09:43:08;0.60;;;0.40;;
1737;SDS011;16278;48.740;8.736;2022-07-06T09:45:35;0.47;;;0.40;;
1737;SDS011;16278;48.740;8.736;2022-07-06T09:48:14;0.60;;;0.40;;
1737;SDS011;16278;48.740;8.736;2022-07-06T09:50:44;0.83;;;0.43;;
1737;SDS011;16278;48.740;8.736;2022-07-06T09:53:11;1.10;;;0.50;;
1737;SDS011;16278;48.740;8.736;2022-07-06T09:55:37;0.53;;;0.50;;
1737;SDS011;16278;48.740;8.736;2022-07-06T09:58:03;0.70;;;0.50;;
1737;SDS011;16278;48.740;8.736;2022-07-06T10:00:30;0.70;;;0.50;;
1737;SDS011;16278;48.740;8.736;2022-07-06T10:02:56;1.07;;;0.43;;
1737;SDS011;16278;48.740;8.736;2022-07-06T10:05:22;0.57;;;0.40;;
1737;SDS011;16278;48.740;8.736;2022-07-06T10:07:55;0.80;;;0.40;;
1737;SDS011;16278;48.740;8.736;2022-07-06T10:10:22;0.83;;;0.50;;
1737;SDS011;16278;48.740;8.736;2022-07-06T10:12:49;0.70;;;0.50;;
1737;SDS011;16278;48.740;8.736;2022-07-06T10:15:15;0.50;;;0.40;;
1737;SDS011;16278;48.740;8.736;2022-07-06T10:17:43;0.80;;;0.50;;
1737;SDS011;16278;48.740;8.736;2022-07-06T10:20:09;1.23;;;0.50;;
1737;SDS011;16278;48.740;8.736;2022-07-06T10:22:37;0.90;;;0.50;;
1737;SDS011;16278;48.740;8.736;2022-07-06T10:25:03;0.60;;;0.40;;
1737;SDS011;16278;48.740;8.736;2022-07-06T10:27:29;0.70;;;0.50;;
1737;SDS011;16278;48.740;8.736;2022-07-06T10:29:56;0.60;;;0.50;;
1737;SDS011;16278;48.740;8.736;2022-07-06T10:32:22;0.57;;;0.40;;
1737;SDS011;16278;48.740;8.736;2022-07-06T10:34:48;0.97;;;0.40;;
1737;SDS011;16278;48.740;8.736;2022-07-06T10:37:24;0.77;;;0.40;;
1737;SDS011;16278;48.740;8.736;2022-07-06T10:39:50;1.13;;;0.50;;
1737;SDS011;16278;48.740;8.736;2022-07-06T10:45:12;0.60;;;0.43;;
1737;SDS011;16278;48.740;8.736;2022-07-06T10:47:39;0.70;;;0.50;;
1737;SDS011;16278;48.740;8.736;2022-07-06T10:50:05;0.80;;;0.40;;
1737;SDS011;16278;48.740;8.736;2022-07-06T10:55:34;1.37;;;0.47;;
1737;SDS011;16278;48.740;8.736;2022-07-06T10:58:01;1.37;;;0.50;;
1737;SDS011;16278;48.740;8.736;2022-07-06T11:06:10;1.10;;;0.33;;
1737;SDS011;16278;48.740;8.736;2022-07-06T11:11:13;0.80;;;0.50;;
1737;SDS011;16278;48.740;8.736;2022-07-06T11:13:42;0.50;;;0.40;;
1737;SDS011;16278;48.740;8.736;2022-07-06T11:16:08;0.90;;;0.40;;
1737;SDS011;16278;48.740;8.736;2022-07-06T11:18:41;0.50;;;0.37;;
1737;SDS011;16278;48.740;8.736;2022-07-06T11:21:23;0.50;;;0.30;;
1737;SDS011;16278;48.740;8.736;2022-07-06T11:23:50;1.00;;;0.37;;
1737;SDS011;16278;48.740;8.736;2022-07-06T11:26:16;0.60;;;0.30;;
1737;SDS011;16278;48.740;8.736;2022-07-06T11:28:46;0.93;;;0.40;;
1737;SDS011;16278;48.740;8.736;2022-07-06T11:31:13;1.17;;;0.40;;
1737;SDS011;16278;48.740;8.736;2022-07-06T11:33:40;0.73;;;0.33;;
1737;SDS011;16278;48.740;8.736;2022-07-06T11:36:18;0.50;;;0.40;;
1737;SDS011;16278;48.740;8.736;2022-07-06T11:38:45;0.60;;;0.40;;
1737;SDS011;16278;48.740;8.736;2022-07-06T11:41:12;1.03;;;0.40;;
1737;SDS011;16278;48.740;8.736;2022-07-06T11:43:42;0.50;;;0.50;;
1737;SDS011;16278;48.740;8.736;2022-07-06T11:46:52;1.23;;;0.40;;
1737;SDS011;16278;48.740;8.736;2022-07-06T11:49:06;0.60;;;0.40;;
1737;SDS011;16278;48.740;8.736;2022-07-06T11:51:33;0.93;;;0.40;;
1737;SDS011;16278;48.740;8.736;2022-07-06T11:54:00;1.77;;;0.60;;
1737;SDS011;16278;48.740;8.736;2022-07-06T11:56:29;0.77;;;0.47;;
1737;SDS011;16278;48.740;8.736;2022-07-06T11:58:56;0.70;;;0.40;;
1737;SDS011;16278;48.740;8.736;2022-07-06T12:01:23;0.63;;;0.40;;
1737;SDS011;16278;48.740;8.736;2022-07-06T12:03:49;0.80;;;0.50;;
1737;SDS011;16278;48.740;8.736;2022-07-06T12:08:43;0.40;;;0.40;;
1737;SDS011;16278;48.740;8.736;2022-07-06T12:11:09;0.70;;;0.60;;
1737;SDS011;16278;48.740;8.736;2022-07-06T12:13:36;1.17;;;0.50;;
1737;SDS011;16278;48.740;8.736;2022-07-06T12:16:10;0.50;;;0.50;;
1737;SDS011;16278;48.740;8.736;2022-07-06T12:18:37;0.83;;;0.40;;
1737;SDS011;16278;48.740;8.736;2022-07-06T12:21:03;2.00;;;0.40;;
1737;SDS011;16278;48.740;8.736;2022-07-06T12:23:49;0.93;;;0.40;;
1737;SDS011;16278;48.740;8.736;2022-07-06T12:26:16;0.60;;;0.40;;
1737;SDS011;16278;48.740;8.736;2022-07-06T12:28:42;0.50;;;0.30;;
1737;SDS011;16278;48.740;8.736;2022-07-06T12:31:09;0.60;;;0.40;;
1737;SDS011;16278;48.740;8.736;2022-07-06T12:33:35;1.67;;;0.40;;
1737;SDS011;16278;48.740;8.736;2022-07-06T12:36:08;0.50;;;0.37;;
1737;SDS011;16278;48.740;8.736;2022-07-06T12:38:34;0.60;;;0.30;;
1737;SDS011;16278;48.740;8.736;2022-07-06T12:41:00;0.50;;;0.30;;
1737;SDS011;16278;48.740;8.736;2022-07-06T12:43:37;0.67;;;0.37;;
1737;SDS011;16278;48.740;8.736;2022-07-06T12:46:22;0.70;;;0.37;;
1737;SDS011;16278;48.740;8.736;2022-07-06T12:48:52;0.50;;;0.40;;
1737;SDS011;16278;48.740;8.736;2022-07-06T12:51:18;0.50;;;0.37;;
1737;SDS011;16278;48.740;8.736;2022-07-06T12:53:44;0.50;;;0.40;;
1737;SDS011;16278;48.740;8.736;2022-07-06T12:56:10;0.70;;;0.30;;
1737;SDS011;16278;48.740;8.736;2022-07-06T12:58:37;0.73;;;0.30;;
1737;SDS011;16278;48.740;8.736;2022-07-06T13:01:03;0.70;;;0.37;;
1737;SDS011;16278;48.740;8.736;2022-07-06T13:03:37;0.63;;;0.40;;
1737;SDS011;16278;48.740;8.736;2022-07-06T13:06:04;0.63;;;0.30;;
1737;SDS011;16278;48.740;8.736;2022-07-06T13:08:30;0.73;;;0.30;;
1737;SDS011;16278;48.740;8.736;2022-07-06T13:10:56;0.87;;;0.37;;
1737;SDS011;16278;48.740;8.736;2022-07-06T13:13:22;1.57;;;0.30;;
1737;SDS011;16278;48.740;8.736;2022-07-06T13:15:48;0.40;;;0.30;;
1737;SDS011;16278;48.740;8.736;2022-07-06T13:18:15;0.40;;;0.30;;
1737;SDS011;16278;48.740;8.736;2022-07-06T13:20:43;0.60;;;0.30;;
1737;SDS011;16278;48.740;8.736;2022-07-06T13:23:09;0.60;;;0.30;;
1737;SDS011;16278;48.740;8.736;2022-07-06T13:25:35;0.37;;;0.20;;
1737;SDS011;16278;48.740;8.736;2022-07-06T13:28:01;3.17;;;0.40;;
1737;SDS011;16278;48.740;8.736;2022-07-06T13:30:27;0.50;;;0.27;;
1737;SDS011;16278;48.740;8.736;2022-07-06T13:32:53;0.70;;;0.30;;
1737;SDS011;16278;48.740;8.736;2022-07-06T13:35:21;0.70;;;0.30;;
1737;SDS011;16278;48.740;8.736;2022-07-06T13:37:47;0.40;;;0.30;;
1737;SDS011;16278;48.740;8.736;2022-07-06T13:40:15;0.50;;;0.30;;
1737;SDS011;16278;48.740;8.736;2022-07-06T13:42:41;0.40;;;0.30;;
1737;SDS011;16278;48.740;8.736;2022-07-06T13:45:07;0.63;;;0.30;;
1737;SDS011;16278;48.740;8.736;2022-07-06T13:47:33;1.13;;;0.20;;
1737;SDS011;16278;48.740;8.736;2022-07-06T13:49:59;0.90;;;0.30;;
1737;SDS011;16278;48.740;8.736;2022-07-06T13:52:25;0.50;;;0.30;;
1737;SDS011;16278;48.740;8.736;2022-07-06T13:54:51;0.80;;;0.30;;
1737;SDS011;16278;48.740;8.736;2022-07-06T13:57:17;0.40;;;0.23;;
1737;SDS011;16278;48.740;8.736;2022-07-06T13:59:43;0.30;;;0.30;;
1737;SDS011;16278;48.740;8.736;2022-07-06T14:02:11;0.40;;;0.20;;
1737;SDS011;16278;48.740;8.736;2022-07-06T14:04:37;0.40;;;0.30;;
1737;SDS011;16278;48.740;8.736;2022-07-06T14:07:03;0.47;;;0.30;;
1737;SDS011;16278;48.740;8.736;2022-07-06T14:09:30;0.40;;;0.30;;
1737;SDS011;16278;48.740;8.736;2022-07-06T14:11:56;0.50;;;0.30;;
1737;SDS011;16278;48.740;8.736;2022-07-06T14:14:22;0.60;;;0.30;;
1737;SDS011;16278;48.740;8.736;2022-07-06T14:16:48;0.40;;;0.20;;
1737;SDS011;16278;48.740;8.736;2022-07-06T14:19:14;0.40;;;0.20;;
1737;SDS011;16278;48.740;8.736;2022-07-06T14:21:40;0.60;;;0.20;;
1737;SDS011;16278;48.740;8.736;2022-07-06T14:24:06;0.70;;;0.30;;
1737;SDS011;16278;48.740;8.736;2022-07-06T14:26:32;0.30;;;0.20;;
1737;SDS011;16278;48.740;8.736;2022-07-06T14:28:58;0.50;;;0.20;;
1737;SDS011;16278;48.740;8.736;2022-07-06T14:31:24;0.50;;;0.20;;
1737;SDS011;16278;48.740;8.736;2022-07-06T14:33:50;0.50;;;0.23;;
1737;SDS011;16278;48.740;8.736;2022-07-06T14:36:16;0.67;;;0.20;;
1737;SDS011;16278;48.740;8.736;2022-07-06T14:38:42;0.30;;;0.30;;
1737;SDS011;16278;48.740;8.736;2022-07-06T14:41:08;0.30;;;0.27;;
1737;SDS011;16278;48.740;8.736;2022-07-06T14:43:34;0.87;;;0.20;;
1737;SDS011;16278;48.740;8.736;2022-07-06T14:46:01;0.40;;;0.20;;
1737;SDS011;16278;48.740;8.736;2022-07-06T14:48:27;0.63;;;0.20;;
1737;SDS011;16278;48.740;8.736;2022-07-06T14:50:53;0.87;;;0.30;;
1737;SDS011;16278;48.740;8.736;2022-07-06T14:53:19;0.53;;;0.23;;
1737;SDS011;16278;48.740;8.736;2022-07-06T14:55:45;0.20;;;0.20;;
1737;SDS011;16278;48.740;8.736;2022-07-06T14:58:12;0.63;;;0.20;;
1737;SDS011;16278;48.740;8.736;2022-07-06T15:00:38;0.30;;;0.20;;
1737;SDS011;16278;48.740;8.736;2022-07-06T15:03:04;0.30;;;0.20;;
1737;SDS011;16278;48.740;8.736;2022-07-06T15:05:30;1.03;;;0.30;;
1737;SDS011;16278;48.740;8.736;2022-07-06T15:07:56;0.50;;;0.20;;
1737;SDS011;16278;48.740;8.736;2022-07-06T15:10:22;0.43;;;0.20;;
1737;SDS011;16278;48.740;8.736;2022-07-06T15:12:48;1.03;;;0.20;;
1737;SDS011;16278;48.740;8.736;2022-07-06T15:15:14;0.60;;;0.30;;